Latest Weather Observations for Norah Head

IDN60901

Issued at 2:15 pm EST Wednesday 16 April 2014 (issued every 10 minutes, with the page automatically refreshed every 10 minutes)

About weather observations | Map of Sydney area stations | Latest observations for Sydney area | Other Formats
Station Details ID: 061366 Name: NORAH HEAD AWS Lat: -33.28 Lon: 151.58 Height: 18.8 m
Data from the previous 72 hours. | See also: Recent months at Norah Head
Date/Time
EST
Tmp

°C
App
Tmp
°C
Dew
Point
°C
Rel
Hum
%
Delta-T

°C
Wind Press
QNH
hPa
Press
MSL
hPa
Rain
since
9 am
mm
Dir
 
Spd
km/h
Gust
km/h
Spd
kts
Gust
kts
16/02:00pm 20.6 16.3 15.4 72 3.1 S 32 41 17 22 1017.1 1017.0 0.0
16/01:30pm 20.6 16.9 14.9 70 3.4 S 28 37 15 20 1017.1 - 0.0
16/01:00pm 20.7 18.5 15.0 70 3.4 SSW 20 30 11 16 1017.4 1017.3 0.0
16/12:30pm 20.4 18.0 14.5 69 3.4 SSW 20 32 11 17 1017.7 - 0.0
16/12:00pm 20.4 18.9 15.2 72 3.1 SSW 17 28 9 15 1018.3 1018.2 0.0
16/11:30am 19.1 18.9 14.8 76 2.5 SW 9 19 5 10 1018.7 - 0.0
16/11:00am 18.6 15.9 14.7 78 2.3 SSW 22 30 12 16 1018.9 1018.8 0.0
16/10:30am 18.8 15.5 15.1 79 2.2 SSW 26 37 14 20 1018.9 - 0.0
16/10:00am 19.1 15.4 15.0 77 2.4 SSW 28 35 15 19 1019.0 1018.9 0.0
16/09:30am 18.8 17.0 14.5 76 2.5 SSW 17 28 9 15 1019.1 - 0.0
16/09:00am 18.4 17.5 14.9 80 2.0 SW 13 24 7 13 1019.0 1018.9 21.8
16/08:30am 17.3 16.2 14.4 83 1.7 SW 13 20 7 11 1018.9 - 21.8
16/08:00am 16.6 15.1 14.1 85 1.4 SW 15 26 8 14 1019.0 1018.9 21.8
16/07:30am 15.9 14.2 13.6 86 1.3 WSW 15 22 8 12 1018.6 - 21.8
16/07:00am 15.8 14.4 13.5 86 1.3 WSW 13 19 7 10 1018.5 1018.4 21.8
16/06:30am 17.0 15.0 15.0 88 1.2 SW 19 32 10 17 1018.0 - 21.6
16/06:00am 16.1 14.2 14.3 89 1.0 SW 17 24 9 13 1017.8 1017.7 21.6
16/05:30am 15.6 14.4 14.1 91 0.8 WSW 13 20 7 11 1017.7 - 21.6
16/05:00am 15.5 16.1 14.2 92 0.7 WNW 4 9 2 5 1017.8 1017.7 21.6
16/04:30am 16.1 14.3 14.5 90 0.9 SW 17 26 9 14 1017.6 - 16.2
16/04:00am 16.5 15.2 14.7 89 1.0 SW 15 24 8 13 1017.5 1017.4 15.8
16/03:30am 16.9 15.3 15.1 89 1.0 SW 17 28 9 15 1017.4 - 15.6
16/03:00am 16.8 15.6 15.0 89 1.0 SW 15 24 8 13 1017.3 1017.2 15.2
16/02:30am 16.4 14.6 14.4 88 1.1 SW 17 24 9 13 1017.4 - 15.2
16/02:00am 16.5 15.3 15.0 91 0.9 SW 15 22 8 12 1017.6 1017.5 15.2
16/01:30am 16.5 14.9 15.0 91 0.9 WSW 17 26 9 14 1018.0 - 15.2
16/01:00am 16.6 15.5 15.3 92 0.8 SW 15 22 8 12 1018.2 1018.1 15.0
16/12:30am 16.4 15.6 15.1 92 0.8 WSW 13 20 7 11 1018.5 - 15.0
16/12:00am 17.0 15.8 15.0 88 1.2 SW 15 32 8 17 1018.7 1018.6 11.6
 
Date/Time
EST
Tmp

°C
App
Tmp
°C
Dew
Point
°C
Rel
Hum
%
Delta-T

°C
Wind Press
QNH
hPa
Press
MSL
hPa
Rain
since
9 am
mm
Dir
 
Spd
km/h
Gust
km/h
Spd
kts
Gust
kts
15/11:30pm 17.9 13.7 16.2 90 1.0 SSE 33 43 18 23 1018.5 - 11.2
15/11:17pm 17.3 13.9 15.8 91 0.9 SSE 28 50 15 27 1018.8 - 10.8
15/11:00pm 18.2 15.6 16.9 92 0.8 SSE 26 32 14 17 1019.0 1018.9 10.6
15/10:30pm 17.6 12.3 16.3 92 0.8 SSE 39 48 21 26 1019.0 - 10.4
15/10:00pm 18.2 12.2 16.9 92 0.8 S 44 54 24 29 1019.0 1018.9 10.0
15/09:49pm 17.8 12.2 16.5 92 0.8 S 41 46 22 25 1019.1 - 9.6
15/09:30pm 17.1 15.3 15.4 90 1.0 WSW 19 24 10 13 1019.3 - 7.2
15/09:00pm 16.6 16.3 15.5 93 0.6 WSW 11 20 6 11 1019.3 1019.2 7.2
15/08:30pm 17.1 15.8 15.8 92 0.8 SW 17 30 9 16 1019.1 - 4.4
15/08:00pm 17.5 16.8 15.3 87 1.3 SW 13 20 7 11 1019.2 1019.1 3.0
15/07:30pm 17.8 16.5 14.9 83 1.7 WSW 15 22 8 12 1019.1 - 3.0
15/07:00pm 18.4 15.8 15.8 85 1.5 S 24 35 13 19 1018.6 1018.5 3.0
15/06:30pm 18.4 13.5 16.4 88 1.2 S 37 46 20 25 1018.5 - 3.0
15/06:00pm 18.7 12.9 16.1 85 1.5 S 41 56 22 30 1018.1 1018.0 3.0
15/05:30pm 19.1 12.7 15.8 81 2.0 S 44 59 24 32 1017.8 - 3.0
15/05:19pm 18.6 12.7 15.8 84 1.7 S 41 61 22 33 1017.7 - 3.0
15/05:15pm 18.7 14.1 16.1 85 1.5 S 35 52 19 28 1017.9 - 3.0
15/05:00pm 17.3 14.4 13.0 76 2.4 SW 20 32 11 17 1018.1 1018.0 3.0
15/04:44pm 19.5 16.3 16.2 81 2.0 SSW 28 46 15 25 1017.7 - 2.8
15/04:30pm 18.6 14.9 14.9 79 2.2 SSW 28 43 15 23 1017.9 - 2.8
15/04:00pm 18.8 15.3 16.4 86 1.4 S 30 43 16 23 1017.9 1017.8 2.8
15/03:30pm 18.8 13.5 16.4 86 1.4 S 39 54 21 29 1017.8 - 2.8
15/03:00pm 18.4 13.8 16.2 87 1.3 S 35 48 19 26 1018.1 1018.0 2.8
15/02:44pm 18.0 13.7 16.0 88 1.2 S 33 43 18 23 1018.1 - 2.8
15/02:30pm 16.7 16.9 14.7 88 1.2 SSW 7 13 4 7 1018.4 - 2.8
15/02:00pm 17.1 12.5 14.7 86 1.4 S 32 50 17 27 1018.5 1018.4 0.8
15/01:30pm 18.3 14.7 15.2 82 1.8 S 28 32 15 17 1018.2 - 0.2
15/01:11pm 19.0 14.4 14.7 76 2.5 S 32 35 17 19 1018.3 - 0.2
15/01:00pm 18.8 18.5 14.3 75 2.6 S 9 17 5 9 1018.6 1018.5 0.2
15/12:30pm 19.0 16.8 14.9 77 2.4 S 20 28 11 15 1018.8 - 0.2
15/12:00pm 18.4 17.7 13.1 71 3.0 SW 9 15 5 8 1019.3 1019.2 0.2
15/11:30am 17.9 17.1 14.0 78 2.2 S 11 20 6 11 1019.8 - 0.2
15/11:00am 17.4 15.2 14.3 82 1.8 S 19 26 10 14 1020.3 1020.2 0.2
15/10:30am 18.1 15.7 14.4 79 2.1 SSW 20 28 11 15 1020.4 - 0.0
15/10:00am 18.4 16.8 15.1 81 1.9 SSW 17 26 9 14 1020.3 1020.2 0.0
15/09:30am 18.1 18.5 15.4 84 1.6 WSW 7 17 4 9 1020.1 - 0.0
15/09:00am 17.0 17.4 15.2 89 1.0 WSW 7 17 4 9 1020.3 1020.2 27.2
15/08:30am 16.2 17.0 14.7 91 0.9 W 4 7 2 4 1020.3 - 27.2
15/08:00am 16.0 15.6 14.2 89 1.0 SW 9 17 5 9 1020.4 1020.3 25.6
15/07:30am 16.1 14.8 13.8 86 1.3 WSW 13 19 7 10 1019.7 - 23.6
15/07:00am 15.9 14.2 13.6 86 1.3 WSW 15 22 8 12 1019.5 1019.4 23.6
15/06:30am 15.5 13.7 13.3 87 1.2 WSW 15 24 8 13 1019.4 - 23.6
15/06:00am 14.8 13.3 13.0 89 1.0 WSW 13 20 7 11 1019.3 1019.2 23.6
15/05:30am 14.8 13.7 13.0 89 1.0 W 11 15 6 8 1019.1 - 23.6
15/05:00am 14.9 13.8 13.1 89 1.0 W 11 17 6 9 1019.0 1018.9 23.6
15/04:30am 15.1 14.1 13.5 90 0.9 W 11 20 6 11 1019.0 - 23.6
15/04:00am 15.6 14.8 14.0 90 0.9 W 11 17 6 9 1018.9 1018.8 23.6
15/03:30am 16.2 16.0 14.7 91 0.9 WSW 9 15 5 8 1019.0 - 23.4
15/03:00am 15.5 14.3 14.0 91 0.8 W 13 19 7 10 1019.1 1019.0 23.4
15/02:30am 15.4 15.0 14.1 92 0.7 W 9 15 5 8 1019.2 - 23.4
15/02:00am 15.4 15.0 14.1 92 0.7 W 9 15 5 8 1019.4 1019.3 23.4
15/01:30am 15.6 14.9 14.3 92 0.7 W 11 17 6 9 1019.6 - 23.4
15/01:00am 16.1 16.3 14.8 92 0.7 W 7 13 4 7 1019.8 1019.7 23.2
15/12:30am 17.2 16.8 16.1 93 0.7 S 13 19 7 10 1019.9 - 23.2
15/12:00am 16.0 15.5 14.9 93 0.6 WSW 11 17 6 9 1020.1 1020.0 23.2
 
Date/Time
EST
Tmp

°C
App
Tmp
°C
Dew
Point
°C
Rel
Hum
%
Delta-T

°C
Wind Press
QNH
hPa
Press
MSL
hPa
Rain
since
9 am
mm
Dir
 
Spd
km/h
Gust
km/h
Spd
kts
Gust
kts
14/11:30pm 16.0 15.9 14.9 93 0.6 W 9 15 5 8 1020.2 - 23.0
14/11:00pm 16.3 16.2 15.0 92 0.7 W 9 13 5 7 1020.2 1020.1 23.0
14/10:30pm 16.7 17.0 14.9 89 1.0 WNW 7 13 4 7 1020.5 - 23.0
14/10:00pm 17.5 14.5 15.8 90 1.0 SSE 26 32 14 17 1020.5 1020.4 23.0
14/09:30pm 16.0 15.1 14.9 93 0.6 SW 13 19 7 10 1020.8 - 23.0
14/09:00pm 16.1 14.8 14.8 92 0.7 WSW 15 22 8 12 1020.5 1020.4 19.6
14/08:30pm 16.5 16.1 15.2 92 0.8 WSW 11 19 6 10 1020.5 - 18.0
14/08:00pm 16.4 16.0 15.1 92 0.8 W 11 19 6 10 1020.3 1020.2 18.0
14/07:30pm 16.8 16.0 15.0 89 1.0 WSW 13 17 7 9 1020.2 - 18.0
14/07:00pm 17.2 16.5 15.4 89 1.0 SE 13 19 7 10 1019.9 1019.8 16.8
14/06:48pm 17.1 15.2 15.3 89 1.0 SE 19 22 10 12 1019.8 - 16.8
14/06:30pm 17.3 11.7 15.6 90 1.0 S 39 44 21 24 1019.5 - 16.8
14/06:08pm 17.5 13.1 15.7 89 1.1 S 33 52 18 28 1019.1 - 15.2
14/06:07pm 17.5 13.6 15.5 88 1.2 S 30 48 16 26 1019.1 - 15.2
14/06:00pm 17.6 17.0 15.6 88 1.2 SW 13 22 7 12 1019.3 1019.2 15.0
14/05:30pm 18.2 14.3 15.5 84 1.6 SSE 30 35 16 19 1018.7 - 14.8
14/05:00pm 17.4 12.6 15.6 89 1.1 S 35 44 19 24 1018.6 1018.5 14.8
14/04:30pm 18.2 14.4 15.8 86 1.4 S 30 46 16 25 1018.2 - 14.8
14/04:00pm 17.0 15.5 15.3 90 1.0 SE 17 28 9 15 1018.5 1018.4 14.8
14/03:30pm 17.4 14.0 15.9 91 0.9 SSE 28 33 15 18 1018.1 - 12.6
14/03:00pm 17.1 11.8 15.4 90 1.0 SSE 37 44 20 24 1018.1 1018.0 12.6
14/02:53pm 17.4 11.1 15.7 90 1.0 SSE 43 61 23 33 1018.1 - 12.6
14/02:30pm 17.8 15.0 16.3 91 0.9 SSE 26 48 14 26 1018.4 - 12.2
14/02:00pm 17.6 13.1 16.3 92 0.8 SSE 35 43 19 23 1018.1 1018.0 12.0
14/01:37pm 17.5 12.9 16.0 91 0.9 SSE 35 44 19 24 1018.0 - 11.6
14/01:30pm 17.2 17.3 15.5 90 1.0 S 9 22 5 12 1018.3 - 11.0
14/01:00pm 17.7 17.7 16.2 91 0.9 SW 11 24 6 13 1018.6 1018.5 5.6
14/12:30pm 17.2 15.2 15.4 89 1.1 SW 20 28 11 15 1019.0 - 5.0
14/12:14pm 17.7 14.2 15.5 87 1.3 S 28 37 15 20 1019.2 - 1.4
14/12:00pm 17.7 18.8 15.7 88 1.2 WSW 4 9 2 5 1019.3 1019.2 0.8
14/11:30am 17.3 17.0 15.5 89 1.1 S 11 20 6 11 1019.5 - 0.8
14/11:00am 17.0 14.6 14.3 84 1.5 SSW 20 30 11 16 1019.7 1019.6 0.0
14/10:30am 17.8 15.4 14.5 81 1.9 SSW 20 30 11 16 1019.8 - 0.0
14/10:00am 18.2 14.6 15.3 83 1.7 SSW 28 39 15 21 1019.6 1019.5 0.0
14/09:30am 18.2 14.7 13.5 74 2.7 SSW 24 32 13 17 1019.7 - 0.0
14/09:00am 18.3 16.1 13.4 73 2.8 SW 17 26 9 14 1019.5 1019.4 3.2
14/08:30am 16.8 15.0 12.1 74 2.6 WSW 13 20 7 11 1019.4 - 3.2
14/08:00am 16.1 14.2 11.9 76 2.3 WSW 13 20 7 11 1019.1 1019.0 3.2
14/07:30am 15.8 13.7 11.2 74 2.5 WSW 13 24 7 13 1018.8 - 3.2
14/07:00am 15.4 12.9 11.0 75 2.3 WSW 15 20 8 11 1018.5 1018.4 3.2
14/06:30am 15.4 13.3 11.0 75 2.3 W 13 19 7 10 1018.2 - 3.2
14/06:00am 15.6 13.5 11.2 75 2.4 W 13 20 7 11 1018.3 1018.2 3.2
14/05:30am 15.6 14.0 11.6 77 2.2 W 11 19 6 10 1018.2 - 3.2
14/05:00am 15.7 14.2 11.9 78 2.1 W 11 20 6 11 1018.0 1017.9 3.2
14/04:30am 15.7 14.2 11.9 78 2.1 W 11 19 6 10 1017.7 - 3.2
14/04:00am 15.9 14.1 12.1 78 2.1 W 13 19 7 10 1017.6 1017.5 3.2
14/03:30am 16.1 15.2 12.5 79 2.0 W 9 17 5 9 1017.5 - 3.2
14/03:00am 16.6 15.7 12.6 77 2.2 W 9 13 5 7 1017.5 1017.4 3.2
14/02:30am 17.1 15.9 12.8 76 2.4 WSW 11 19 6 10 1017.5 - 3.2
14/02:00am 18.5 16.9 14.0 75 2.6 SW 15 30 8 16 1017.8 1017.7 3.2
14/01:30am 18.3 16.5 13.4 73 2.8 SW 15 22 8 12 1018.0 - 3.2
14/01:00am 17.6 15.9 12.5 72 2.8 SW 13 20 7 11 1018.1 1018.0 3.2
14/12:30am 17.4 16.0 12.1 71 2.9 WSW 11 17 6 9 1018.3 - 3.2
14/12:00am 17.7 16.4 12.4 71 2.9 WSW 11 19 6 10 1018.4 1018.3 3.2
 
Date/Time
EST
Tmp

°C
App
Tmp
°C
Dew
Point
°C
Rel
Hum
%
Delta-T

°C
Wind Press
QNH
hPa
Press
MSL
hPa
Rain
since
9 am
mm
Dir
 
Spd
km/h
Gust
km/h
Spd
kts
Gust
kts
13/11:30pm 18.5 17.2 12.5 68 3.3 WSW 11 17 6 9 1018.4 - 3.2
13/11:00pm 20.9 15.0 12.3 58 4.8 S 35 46 19 25 1018.2 1018.1 3.2
13/10:30pm 20.9 15.5 12.8 60 4.6 S 33 44 18 24 1018.5 - 3.2
13/10:00pm 21.1 15.2 13.5 62 4.4 S 37 46 20 25 1018.5 1018.4 3.2
13/09:30pm 20.9 15.3 13.4 62 4.3 S 35 43 19 23 1018.7 - 3.2
13/09:00pm 21.1 15.9 14.5 66 3.9 S 35 44 19 24 1018.5 1018.4 3.2
13/08:30pm 20.9 14.8 14.1 65 3.9 S 39 50 21 27 1018.1 - 3.2
13/08:00pm 20.9 15.0 14.8 68 3.6 S 39 48 21 26 1017.7 1017.6 3.2
13/07:46pm 20.4 15.6 14.7 70 3.3 S 33 48 18 26 1017.5 - 3.2
13/07:30pm 19.9 18.1 16.9 83 1.8 SSE 22 28 12 15 1017.6 - 3.2
13/07:00pm 19.9 16.8 16.5 81 2.0 SSE 28 33 15 18 1017.2 1017.1 3.2
13/06:30pm 20.1 15.8 15.9 77 2.5 S 33 44 18 24 1016.8 - 3.2
13/06:00pm 19.8 14.9 16.4 81 2.0 S 37 44 20 24 1016.5 1016.4 3.2
13/05:30pm 18.8 15.4 16.8 88 1.2 S 30 48 16 26 1016.5 - 3.2
13/05:00pm 19.6 15.6 16.1 80 2.1 S 32 43 17 23 1016.1 1016.0 2.8
13/04:30pm 19.5 15.0 16.3 82 1.9 SSW 35 46 19 25 1015.8 - 2.8
13/04:00pm 19.5 15.5 16.3 82 1.9 SSW 32 48 17 26 1015.5 1015.4 2.8
13/03:30pm 19.5 16.3 16.3 82 1.9 S 28 39 15 21 1015.5 - 2.8
13/03:00pm 20.1 15.8 16.9 82 1.9 S 35 44 19 24 1015.5 1015.4 2.8
13/02:30pm 19.9 16.1 16.7 82 1.9 S 32 44 17 24 1015.4 - 2.8

Latest Capital City Observations: Canberra | Sydney | Melbourne | Brisbane | Adelaide | Perth | Hobart | Darwin

Other Formats:

Comma delimited format used in spreadsheet applications
http://www.bom.gov.au/fwo/IDN60901/IDN60901.95770.axf

JavaScript Object Notation format (JSON) in row-major order
http://www.bom.gov.au/fwo/IDN60901/IDN60901.95770.json